Fall River, Massachusetts
Current Conditions -  °F | °C
As of 10:53 AM on Sunday 23 Nov 2014 (Local Time) from KEWB Reporting Station
Scattered Clouds Scattered Clouds  
Wind Chill: 12°   Ceiling: Unl
Heat Index: 12°   Visibility: 10mi
Dew Point:   Wind: 15mph
Humidity: 47%   Direction: 250°WSW
Pressure: 30.15"   Gusts: 20mph
Location:  41.7°N, 71.14°W
Report Text: KEWB 231553Z 25013G17KT 10SM SCT100 12/01 A3015 RMK AO2 RAE02 SLP210 P0000 T01170006
Loading
Personal Weather Stations






























Interactive Weather Map New forecast layout! Learn more

10-Day Weather Forecast

Advertisements
Track Severe Weather on mobile